Airfield :
LOGIN :

Register | Disclaimer

   EN    FR    IT 

 










Legend :    VFR   Marginal VFR   IFR   Intensive IFR   Very Intensive IFR
Visi :
Ceiling :
>= 8 km
>= 3000ft
5 to 8 km
1000 to 3000 ft
1500m to 5 km
500 to 1000 ft
800 to 1500m
200 to 500 ft
< 800m
< 200 ft
Symbols :   Thunderstorms  Fog  Heavy snow  Heavy precipitations  Wind > 20 kt
SIGMETs :     Misc.  Thunderstorms  Icing  Turbulence  Mountain Waves  Volcanic Ashes






- Airport Elevation : 1487 ft
- IATA code : MUC


EDDM - München Franz Josef Strauss

CURRENT METAR :
  • 232120Z 06002KT CAVOK 17/14 Q1014 NOSIG

EXPIRED METARs :
  • 232050Z 06003KT CAVOK 19/14 Q1014 NOSIG
  • 232020Z 07002KT CAVOK 21/14 Q1014 NOSIG
  • 231950Z 08003KT CAVOK 21/14 Q1014 NOSIG
  • 231920Z 08003KT CAVOK 22/14 Q1014 NOSIG
  • 231850Z 11004KT CAVOK 23/14 Q1014 NOSIG

TAF TAF EDDM
Valid from the 23 at 18:00 until the 25 at 00:00 UTC


231700Z 2318/2424 08005KT CAVOK
BECMG 2320/2322 VRB02KT
BECMG 2406/2408 07005KT
BECMG 2417/2419 24005KT
PROB30
TEMPO 2418/2422 27025G35KT TSRA BKN060CB
BECMG 2421/2423 VRB02KT



MET'MAP, your aeronautical weather chart ! - Copyright ORBIFLY December 2007 - Disclaimer

ORBIFLY MET'MAP TEAM :

Programming & Development : Alexandra Zaïnal
Concept & original design : Baudouin d'Aumeries
Assistance for programming : Marc-Olivier Méhu
Technical & hardware support : Manuel Goepfert

Contact : metmap@orbifly.com




SOURCES & CREDITS :

   NOAA